createdAt,value
2018-03-18T00:02:43.202Z,65.17
2018-03-18T00:17:39.046Z,80.57
2018-03-18T00:32:35.093Z,76.07
2018-03-18T00:47:37.129Z,77.07
2018-03-18T01:02:38.426Z,89.37
2018-03-18T01:17:34.494Z,95.70
2018-03-18T01:32:37.350Z,94.33
2018-03-18T01:47:34.447Z,105.70
2018-03-18T02:02:36.785Z,83.30
2018-03-18T02:17:45.870Z,142.67
2018-03-18T02:32:34.550Z,118.13
2018-03-18T02:47:37.546Z,109.53
2018-03-18T03:02:35.055Z,137.43
2018-03-18T03:17:40.921Z,113.60
2018-03-18T03:32:35.806Z,121.87
2018-03-18T03:47:48.212Z,103.23
2018-03-18T04:02:35.685Z,99.07
2018-03-18T04:17:37.094Z,104.23
2018-03-18T04:32:35.248Z,92.43
2018-03-18T04:47:37.000Z,75.13
2018-03-18T05:02:34.288Z,83.97
2018-03-18T05:17:34.361Z,76.03
2018-03-18T05:32:34.259Z,50.07
2018-03-18T05:47:34.104Z,81.07
2018-03-18T06:02:34.824Z,76.27
2018-03-18T06:17:36.477Z,72.07
2018-03-18T06:32:37.305Z,58.67
2018-03-18T06:47:34.679Z,47.23
2018-03-18T07:02:34.828Z,45.80
2018-03-18T07:17:34.582Z,36.70
2018-03-18T07:32:34.869Z,21.63
2018-03-18T07:47:34.885Z,16.57
2018-03-18T08:02:35.295Z,10.30
2018-03-18T08:17:34.963Z,13.10
2018-03-18T08:32:34.934Z,14.93
2018-03-18T08:47:35.134Z,5.07
2018-03-18T09:02:34.578Z,2.83
2018-03-18T09:17:34.268Z,4.30
2018-03-18T09:32:34.146Z,5.40
2018-03-18T09:47:34.089Z,7.70
2018-03-18T10:02:34.727Z,9.73
2018-03-18T10:17:34.416Z,14.90
2018-03-18T10:32:34.396Z,11.90
2018-03-18T10:47:34.342Z,17.43
2018-03-18T11:02:35.001Z,16.07
2018-03-18T11:17:34.731Z,8.57
2018-03-18T11:32:34.627Z,11.30
2018-03-18T11:47:34.615Z,8.30
2018-03-18T12:02:35.339Z,8.60
2018-03-18T12:17:35.031Z,13.63
2018-03-18T12:32:34.913Z,29.67
2018-03-18T12:47:36.844Z,26.17
2018-03-18T13:02:35.531Z,10.20
2018-03-18T13:17:34.304Z,8.83
2018-03-18T13:32:34.118Z,6.47
2018-03-18T13:47:36.140Z,6.83
2018-03-18T14:02:34.741Z,7.70
2018-03-18T14:17:34.494Z,11.03
2018-03-18T14:32:34.426Z,10.07
2018-03-18T14:47:34.294Z,8.77
2018-03-18T15:02:36.963Z,10.07
2018-03-18T15:17:34.622Z,8.93
2018-03-18T15:32:34.574Z,9.70
2018-03-18T15:47:34.551Z,8.43
2018-03-18T16:02:35.723Z,7.23
2018-03-18T16:17:34.963Z,11.50
2018-03-18T16:32:35.155Z,7.47
2018-03-18T16:47:34.801Z,7.30
2018-03-18T17:02:36.435Z,16.20
2018-03-18T17:17:38.053Z,9.17
2018-03-18T17:32:34.238Z,9.50
2018-03-18T17:47:45.890Z,11.50
2018-03-18T18:02:34.673Z,13.10
2018-03-18T18:17:40.657Z,18.20
2018-03-18T18:32:36.393Z,11.60
2018-03-18T18:47:36.381Z,10.80
2018-03-18T19:02:35.926Z,10.93
2018-03-18T19:17:36.934Z,11.17
2018-03-18T19:32:34.782Z,9.10
2018-03-18T19:47:34.623Z,8.97
2018-03-18T20:02:34.282Z,11.73
2018-03-18T20:17:34.930Z,11.90
2018-03-18T20:32:35.015Z,9.93
2018-03-18T20:47:35.126Z,12.00
2018-03-18T21:02:34.558Z,12.17
2018-03-18T21:17:35.061Z,13.73
2018-03-18T21:32:36.492Z,9.73
2018-03-18T21:47:36.339Z,5.77
2018-03-18T22:02:34.698Z,7.30
2018-03-18T22:17:34.680Z,16.17
2018-03-18T22:47:36.614Z,16.60
2018-03-18T23:02:34.953Z,17.73
2018-03-18T23:17:34.808Z,7.20
2018-03-18T23:32:45.774Z,15.13
2018-03-18T23:47:35.968Z,13.47
